Time,TemperatureF,DewpointF,PressureIn,WindDirection,WindDirectionDegrees,WindSpeedMPH,WindSpeedGustMPH,Humidity,HourlyPrecipIn,Conditions,Clouds,dailyrainin,SoftwareType,DateUTC
2013-10-20 00:12:00,63.0,31.0,23.96,North,-999,-999.0,-999.0,30,-99.99,,,-99.99,Acu-Link.com,2013-10-20 07:12:00,
2013-10-20 00:28:00,62.6,30.7,23.95,North,-999,-999.0,-999.0,30,-99.99,,,-99.99,Acu-Link.com,2013-10-20 07:28:00,
2013-10-20 00:43:00,62.1,30.3,23.95,North,-999,-999.0,-999.0,30,-99.99,,,-99.99,Acu-Link.com,2013-10-20 07:43:00,
2013-10-20 00:58:00,61.7,30.0,23.94,North,-999,-999.0,-999.0,30,-99.99,,,-99.99,Acu-Link.com,2013-10-20 07:58:00,
2013-10-20 01:16:00,61.2,29.5,23.95,North,-999,-999.0,-999.0,30,-99.99,,,-99.99,Acu-Link.com,2013-10-20 08:16:00,
2013-10-20 01:31:00,61.0,29.3,23.94,North,-999,-999.0,-999.0,30,-99.99,,,-99.99,Acu-Link.com,2013-10-20 08:31:00,
2013-10-20 01:46:00,60.4,28.9,23.95,North,-999,-999.0,-999.0,30,-99.99,,,-99.99,Acu-Link.com,2013-10-20 08:46:00,
2013-10-20 02:01:00,59.9,28.4,23.94,North,-999,-999.0,-999.0,30,-99.99,,,-99.99,Acu-Link.com,2013-10-20 09:01:00,
2013-10-20 02:16:00,59.5,28.1,23.94,North,-999,-999.0,-999.0,30,-99.99,,,-99.99,Acu-Link.com,2013-10-20 09:16:00,
2013-10-20 02:31:00,59.2,27.8,23.94,North,-999,-999.0,-999.0,30,-99.99,,,-99.99,Acu-Link.com,2013-10-20 09:31:00,
2013-10-20 02:46:00,58.5,27.1,23.94,North,-999,-999.0,-999.0,30,-99.99,,,-99.99,Acu-Link.com,2013-10-20 09:46:00,
2013-10-20 03:02:00,58.3,27.0,23.92,North,-999,-999.0,-999.0,30,-99.99,,,-99.99,Acu-Link.com,2013-10-20 10:02:00,
2013-10-20 03:17:00,57.9,26.7,23.92,North,-999,-999.0,-999.0,30,-99.99,,,-99.99,Acu-Link.com,2013-10-20 10:17:00,
2013-10-20 03:32:00,57.6,26.4,23.92,North,-999,-999.0,-999.0,30,-99.99,,,-99.99,Acu-Link.com,2013-10-20 10:32:00,
2013-10-20 03:48:00,57.2,26.1,23.91,North,-999,-999.0,-999.0,30,-99.99,,,-99.99,Acu-Link.com,2013-10-20 10:48:00,
2013-10-20 04:03:00,56.8,25.7,23.92,North,-999,-999.0,-999.0,30,-99.99,,,-99.99,Acu-Link.com,2013-10-20 11:03:00,
2013-10-20 04:18:00,56.5,25.4,23.91,North,-999,-999.0,-999.0,30,-99.99,,,-99.99,Acu-Link.com,2013-10-20 11:18:00,
2013-10-20 04:33:00,56.3,25.3,23.91,North,-999,-999.0,-999.0,30,-99.99,,,-99.99,Acu-Link.com,2013-10-20 11:33:00,
2013-10-20 04:48:00,55.9,25.0,23.91,North,-999,-999.0,-999.0,30,-99.99,,,-99.99,Acu-Link.com,2013-10-20 11:48:00,
2013-10-20 05:03:00,55.8,24.8,23.91,North,-999,-999.0,-999.0,30,-99.99,,,-99.99,Acu-Link.com,2013-10-20 12:03:00,
2013-10-20 05:19:00,55.4,24.5,23.91,North,-999,-999.0,-999.0,30,-99.99,,,-99.99,Acu-Link.com,2013-10-20 12:19:00,
2013-10-20 05:34:00,55.0,24.2,23.92,North,-999,-999.0,-999.0,30,-99.99,,,-99.99,Acu-Link.com,2013-10-20 12:34:00,
2013-10-20 05:49:00,54.9,24.0,23.92,North,-999,-999.0,-999.0,30,-99.99,,,-99.99,Acu-Link.com,2013-10-20 12:49:00,
2013-10-20 06:04:00,54.7,23.9,23.92,North,-999,-999.0,-999.0,30,-99.99,,,-99.99,Acu-Link.com,2013-10-20 13:04:00,
2013-10-20 06:19:00,54.5,23.7,23.91,North,-999,-999.0,-999.0,30,-99.99,,,-99.99,Acu-Link.com,2013-10-20 13:19:00,
2013-10-20 06:34:00,54.1,23.4,23.92,North,-999,-999.0,-999.0,30,-99.99,,,-99.99,Acu-Link.com,2013-10-20 13:34:00,
2013-10-20 06:50:00,54.0,23.2,23.91,North,-999,-999.0,-999.0,30,-99.99,,,-99.99,Acu-Link.com,2013-10-20 13:50:00,
2013-10-20 07:05:00,53.8,23.1,23.91,North,-999,-999.0,-999.0,30,-99.99,,,-99.99,Acu-Link.com,2013-10-20 14:05:00,
2013-10-20 07:20:00,53.4,22.8,23.91,North,-999,-999.0,-999.0,30,-99.99,,,-99.99,Acu-Link.com,2013-10-20 14:20:00,
2013-10-20 07:35:00,53.2,22.6,23.92,North,-999,-999.0,-999.0,30,-99.99,,,-99.99,Acu-Link.com,2013-10-20 14:35:00,
2013-10-20 07:51:00,53.1,22.5,23.91,North,-999,-999.0,-999.0,30,-99.99,,,-99.99,Acu-Link.com,2013-10-20 14:51:00,
2013-10-20 08:06:00,52.7,21.4,23.92,North,-999,-999.0,-999.0,29,-99.99,,,-99.99,Acu-Link.com,2013-10-20 15:06:00,
2013-10-20 08:21:00,52.7,21.4,23.92,North,-999,-999.0,-999.0,29,-99.99,,,-99.99,Acu-Link.com,2013-10-20 15:21:00,
2013-10-20 08:36:00,52.5,21.2,23.92,North,-999,-999.0,-999.0,29,-99.99,,,-99.99,Acu-Link.com,2013-10-20 15:36:00,
2013-10-20 08:51:00,52.5,21.2,23.92,North,-999,-999.0,-999.0,29,-99.99,,,-99.99,Acu-Link.com,2013-10-20 15:51:00,
2013-10-20 09:07:00,52.5,21.2,23.92,North,-999,-999.0,-999.0,29,-99.99,,,-99.99,Acu-Link.com,2013-10-20 16:07:00,
2013-10-20 09:25:00,52.5,21.2,23.92,North,-999,-999.0,-999.0,29,-99.99,,,-99.99,Acu-Link.com,2013-10-20 16:25:00,
2013-10-20 10:10:00,54.3,22.8,23.92,North,-999,-999.0,-999.0,29,-99.99,,,-99.99,Acu-Link.com,2013-10-20 17:10:00,
2013-10-20 13:15:00,65.1,33.7,23.88,North,-999,-999.0,-999.0,31,-99.99,,,-99.99,Acu-Link.com,2013-10-20 20:15:00,
2013-10-20 16:48:00,75.0,42.3,23.85,North,-999,-999.0,-999.0,31,-99.99,,,-99.99,Acu-Link.com,2013-10-20 23:48:00,
2013-10-20 17:04:00,75.6,42.8,23.86,North,-999,-999.0,-999.0,31,-99.99,,,-99.99,Acu-Link.com,2013-10-21 00:04:00,
2013-10-20 17:20:00,75.4,42.6,23.84,North,-999,-999.0,-999.0,31,-99.99,,,-99.99,Acu-Link.com,2013-10-21 00:20:00,
2013-10-20 17:35:00,75.2,42.5,23.85,North,-999,-999.0,-999.0,31,-99.99,,,-99.99,Acu-Link.com,2013-10-21 00:35:00,
2013-10-20 20:08:00,72.1,39.0,23.87,North,-999,-999.0,-999.0,30,-99.99,,,-99.99,Acu-Link.com,2013-10-21 03:08:00,
2013-10-20 20:25:00,70.7,37.7,23.87,North,-999,-999.0,-999.0,30,-99.99,,,-99.99,Acu-Link.com,2013-10-21 03:25:00,
2013-10-20 20:42:00,70.0,36.3,23.87,North,-999,-999.0,-999.0,29,-99.99,,,-99.99,Acu-Link.com,2013-10-21 03:42:00,
2013-10-20 20:58:00,69.6,35.9,23.88,North,-999,-999.0,-999.0,29,-99.99,,,-99.99,Acu-Link.com,2013-10-21 03:58:00,
2013-10-20 21:55:00,67.5,34.9,23.88,North,-999,-999.0,-999.0,30,-99.99,,,-99.99,Acu-Link.com,2013-10-21 04:55:00,
2013-10-20 22:12:00,67.3,34.8,23.89,North,-999,-999.0,-999.0,30,-99.99,,,-99.99,Acu-Link.com,2013-10-21 05:12:00,
2013-10-20 22:27:00,66.6,34.2,23.88,North,-999,-999.0,-999.0,30,-99.99,,,-99.99,Acu-Link.com,2013-10-21 05:27:00,
2013-10-20 22:44:00,66.0,33.7,23.89,North,-999,-999.0,-999.0,30,-99.99,,,-99.99,Acu-Link.com,2013-10-21 05:44:00,
2013-10-20 23:00:00,65.7,33.4,23.89,North,-999,-999.0,-999.0,30,-99.99,,,-99.99,Acu-Link.com,2013-10-21 06:00:00,
2013-10-20 23:18:00,64.9,32.8,23.88,North,-999,-999.0,-999.0,30,-99.99,,,-99.99,Acu-Link.com,2013-10-21 06:18:00,
2013-10-20 23:33:00,64.6,32.4,23.88,North,-999,-999.0,-999.0,30,-99.99,,,-99.99,Acu-Link.com,2013-10-21 06:33:00,
2013-10-20 23:49:00,64.2,32.1,23.88,North,-999,-999.0,-999.0,30,-99.99,,,-99.99,Acu-Link.com,2013-10-21 06:49:00,